Time;durP1;ratioP1;P1;durP2;ratioP2;P2;SDS_P1;SDS_P2;PMS_P1;PMS_P2;Temp;Humidity;BMP_temperature;BMP_pressure;BME280_temperature;BME280_humidity;BME280_pressure;Samples;Min_cycle;Max_cycle;Signal;HPM_P1;HPM_P2
2021/04/29 00:00:54;;;;;;;5.80;5.30;;;;;;;13.19;90.74;97233.75;4738954;29;104342;-73
2021/04/29 00:03:21;;;;;;;6.00;5.43;;;;;;;12.80;94.35;97233.41;4740229;29;104303;-72
2021/04/29 00:05:48;;;;;;;8.17;6.93;;;;;;;12.88;93.76;97237.94;4745218;29;103091;-73
2021/04/29 00:08:24;;;;;;;5.10;4.60;;;;;;;13.01;92.05;97241.78;4746064;29;103023;-74
2021/04/29 00:10:51;;;;;;;6.00;5.50;;;;;;;13.02;91.30;97232.84;4751193;29;103907;-76
2021/04/29 00:13:19;;;;;;;4.97;4.57;;;;;;;13.07;91.86;97230.56;4745206;29;103852;-75
2021/04/29 00:15:47;;;;;;;7.93;6.50;;;;;;;12.96;92.56;97232.66;4740470;29;102782;-73
2021/04/29 00:18:14;;;;;;;4.63;4.10;;;;;;;13.03;91.05;97239.78;4740067;29;102782;-73
2021/04/29 00:20:42;;;;;;;8.57;7.57;;;;;;;12.97;91.87;97235.13;4740226;29;104586;-72
2021/04/29 00:23:09;;;;;;;5.53;5.03;;;;;;;12.83;93.53;97241.03;4742369;29;104700;-74
2021/04/29 00:25:37;;;;;;;8.77;7.93;;;;;;;12.68;94.85;97245.31;4738807;29;103316;-73
2021/04/29 00:28:04;;;;;;;5.33;4.83;;;;;;;12.91;92.76;97241.09;4748017;29;103452;-74
2021/04/29 00:30:32;;;;;;;6.60;5.13;;;;;;;13.07;92.35;97241.19;4756876;29;103946;-74
2021/04/29 00:32:59;;;;;;;4.80;4.40;;;;;;;13.16;92.36;97239.38;4740346;29;105055;-73
2021/04/29 00:35:26;;;;;;;7.10;6.40;;;;;;;13.16;93.50;97244.69;4745119;29;104591;-72
2021/04/29 00:37:53;;;;;;;4.70;4.30;;;;;;;13.21;91.74;97237.91;4738658;29;103006;-73
2021/04/29 00:40:20;;;;;;;6.17;5.63;;;;;;;13.30;92.32;97242.22;4723374;29;106683;-73
2021/04/29 00:42:48;;;;;;;7.27;6.67;;;;;;;13.24;91.99;97242.88;4739910;29;103712;-73
2021/04/29 00:45:15;;;;;;;6.33;5.73;;;;;;;13.27;91.56;97247.88;4749057;29;103696;-78
2021/04/29 00:47:42;;;;;;;5.67;5.17;;;;;;;13.27;92.61;97245.22;4752736;29;103090;-72
2021/04/29 00:50:12;;;;;;;7.40;6.70;;;;;;;13.32;91.77;97252.66;4722991;29;105031;-74
2021/04/29 00:52:40;;;;;;;6.40;5.77;;;;;;;13.29;92.83;97253.84;4723604;29;103697;-74
2021/04/29 00:55:07;;;;;;;5.43;4.93;;;;;;;13.32;92.36;97253.50;4736812;29;103214;-73
2021/04/29 00:57:35;;;;;;;7.27;6.43;;;;;;;13.32;93.30;97250.84;4739234;29;102818;-73
2021/04/29 01:00:08;;;;;;;8.17;7.17;;;;;;;13.32;92.78;97256.16;4737697;29;105672;-74
2021/04/29 01:02:40;;;;;;;7.93;6.53;;;;;;;13.29;93.40;97260.94;4740697;29;106113;-75
2021/04/29 01:05:11;;;;;;;11.27;7.93;;;;;;;13.11;95.40;97262.88;4739954;29;102970;-73
2021/04/29 01:07:41;;;;;;;8.33;7.63;;;;;;;13.06;95.58;97265.97;4739523;29;102942;-72
2021/04/29 01:10:13;;;;;;;9.27;8.17;;;;;;;12.95;96.42;97266.28;4710755;29;106797;-74
2021/04/29 01:12:47;;;;;;;7.90;7.13;;;;;;;12.96;96.59;97261.81;4739626;29;103896;-74
2021/04/29 01:15:17;;;;;;;5.80;5.27;;;;;;;13.10;95.03;97262.06;4739775;29;102910;-72
2021/04/29 01:17:47;;;;;;;7.07;6.37;;;;;;;13.03;95.81;97271.59;4723053;29;103107;-73
2021/04/29 01:20:19;;;;;;;7.80;7.10;;;;;;;12.97;96.77;97272.25;4747827;29;106453;-72
2021/04/29 01:22:55;;;;;;;4.80;4.37;;;;;;;13.06;94.84;97275.75;4746071;29;104239;-73
2021/04/29 01:25:28;;;;;;;7.10;6.50;;;;;;;13.13;95.36;97274.16;4739523;29;103079;-73
2021/04/29 01:27:57;;;;;;;7.73;7.03;;;;;;;13.11;94.39;97274.31;4739245;29;102753;-74
2021/04/29 01:30:25;;;;;;;7.70;7.00;;;;;;;13.19;93.61;97276.19;4742989;29;104181;-73
2021/04/29 01:32:53;;;;;;;8.97;8.07;;;;;;;13.12;95.72;97278.63;4738796;29;105378;-72
2021/04/29 01:35:20;;;;;;;6.73;6.13;;;;;;;13.02;97.37;97277.09;4746860;29;103207;-73
2021/04/29 01:37:49;;;;;;;8.90;8.10;;;;;;;13.07;97.25;97278.28;4754928;29;102886;-76
2021/04/29 01:40:17;;;;;;;5.80;5.30;;;;;;;13.12;95.74;97283.94;4745362;29;108471;-73
2021/04/29 01:42:44;;;;;;;5.10;4.60;;;;;;;13.13;95.35;97288.25;4738811;29;103392;-74
2021/04/29 01:45:12;;;;;;;6.53;5.93;;;;;;;13.08;96.71;97289.72;4737381;29;103152;-74
2021/04/29 01:47:40;;;;;;;5.70;5.10;;;;;;;12.96;98.37;97289.16;4756691;29;102939;-73
2021/04/29 01:50:09;;;;;;;4.40;4.10;;;;;;;12.98;97.55;97287.16;4750073;29;103849;-74
2021/04/29 01:52:37;;;;;;;5.33;4.00;;;;;;;13.09;96.78;97278.94;4742719;29;107674;-73
2021/04/29 01:55:06;;;;;;;3.20;2.90;;;;;;;13.13;95.83;97282.97;4752595;29;103703;-72
2021/04/29 01:57:33;;;;;;;3.47;3.13;;;;;;;13.13;96.51;97288.25;4738573;29;102956;-72
2021/04/29 02:00:00;;;;;;;4.37;4.07;;;;;;;13.00;97.96;97295.78;4720950;29;104052;-74
2021/04/29 02:02:28;;;;;;;4.13;3.80;;;;;;;13.08;97.16;97295.03;4717384;29;113075;-74
2021/04/29 02:04:55;;;;;;;3.60;3.00;;;;;;;13.16;95.74;97292.41;4740577;29;102645;-74
2021/04/29 02:07:22;;;;;;;3.73;3.37;;;;;;;13.12;96.53;97294.53;4739688;29;102910;-74
2021/04/29 02:09:50;;;;;;;4.60;3.70;;;;;;;13.19;95.86;97290.25;4737510;29;103503;-73
2021/04/29 02:12:17;;;;;;;4.27;3.87;;;;;;;13.12;97.26;97302.50;4741077;29;104766;-75
2021/04/29 02:14:47;;;;;;;4.30;3.90;;;;;;;13.06;97.38;97297.78;4739059;29;103025;-77
2021/04/29 02:17:23;;;;;;;4.47;3.70;;;;;;;13.05;97.38;97301.44;4738772;29;103558;-74
2021/04/29 02:19:52;;;;;;;4.30;4.00;;;;;;;13.08;97.22;97306.44;4750207;29;104546;-73
2021/04/29 02:22:21;;;;;;;3.10;2.90;;;;;;;13.12;96.57;97302.50;4738532;29;105226;-74
2021/04/29 02:24:49;;;;;;;3.77;3.47;;;;;;;13.07;97.92;97309.25;4725532;29;103020;-73
2021/04/29 02:27:16;;;;;;;4.33;3.93;;;;;;;13.06;96.93;97319.00;4746174;29;104771;-71
2021/04/29 02:29:44;;;;;;;4.43;4.03;;;;;;;13.09;97.04;97318.72;4738750;29;103943;-73
2021/04/29 02:32:11;;;;;;;5.00;4.60;;;;;;;13.01;97.81;97321.31;4747602;29;102968;-75
2021/04/29 02:34:39;;;;;;;5.07;4.67;;;;;;;12.71;100.00;97324.47;4735815;29;102656;-78
2021/04/29 02:37:07;;;;;;;6.17;5.30;;;;;;;12.79;99.83;97337.75;4741976;29;103038;-74
2021/04/29 02:39:34;;;;;;;5.50;5.03;;;;;;;12.77;100.00;97339.75;4741018;29;103453;-73
2021/04/29 02:42:01;;;;;;;6.03;5.53;;;;;;;12.66;100.00;97342.63;4741632;29;104449;-73
2021/04/29 02:44:30;;;;;;;6.87;6.27;;;;;;;12.47;100.00;97348.16;4725546;29;103152;-75
2021/04/29 02:46:57;;;;;;;5.30;4.90;;;;;;;12.58;100.00;97351.38;4741306;29;103002;-72
2021/04/29 02:49:26;;;;;;;7.50;6.80;;;;;;;12.58;100.00;97364.63;4741665;29;104019;-72
2021/04/29 02:51:53;;;;;;;7.00;6.40;;;;;;;12.66;100.00;97354.06;4741969;29;103830;-74
2021/04/29 02:54:22;;;;;;;5.00;4.50;;;;;;;12.73;100.00;97362.25;4741783;29;103007;-72
2021/04/29 02:56:49;;;;;;;4.63;4.23;;;;;;;12.72;99.50;97374.66;4742405;29;103457;-73
2021/04/29 02:59:16;;;;;;;3.97;3.57;;;;;;;12.72;100.00;97373.81;4740094;29;104142;-73
2021/04/29 03:01:43;;;;;;;3.20;2.90;;;;;;;12.68;100.00;97380.44;4746609;29;105057;-74
2021/04/29 03:04:10;;;;;;;2.70;2.50;;;;;;;12.73;99.11;97378.97;4741408;29;103038;-74
2021/04/29 03:06:37;;;;;;;3.93;2.50;;;;;;;12.60;98.65;97380.38;4753438;29;102857;-74
2021/04/29 03:09:06;;;;;;;2.50;2.30;;;;;;;12.56;99.39;97389.59;4748899;29;104086;-73
2021/04/29 03:11:35;;;;;;;3.00;2.30;;;;;;;12.49;98.79;97397.31;4740565;29;103814;-73
2021/04/29 03:14:03;;;;;;;2.60;2.40;;;;;;;12.48;99.37;97394.84;4722746;29;102985;-75
2021/04/29 03:16:30;;;;;;;2.67;2.33;;;;;;;12.42;98.29;97400.75;4722503;29;102906;-73
2021/04/29 03:18:57;;;;;;;4.50;2.80;;;;;;;12.45;98.02;97403.09;4740977;29;103540;-73
2021/04/29 03:21:24;;;;;;;2.00;1.90;;;;;;;12.45;97.27;97406.59;4740904;29;103691;-73
2021/04/29 03:23:51;;;;;;;2.40;2.20;;;;;;;12.41;96.31;97410.50;4742469;29;102671;-74
2021/04/29 03:26:18;;;;;;;2.23;1.80;;;;;;;12.08;96.75;97409.41;4740406;29;102894;-73
2021/04/29 03:28:46;;;;;;;2.30;1.77;;;;;;;12.21;96.83;97419.59;4740319;29;103813;-73
2021/04/29 03:31:13;;;;;;;2.00;1.90;;;;;;;12.06;97.78;97424.59;4740768;29;103260;-73
2021/04/29 03:33:41;;;;;;;1.80;1.70;;;;;;;12.21;97.07;97420.44;4742251;29;102563;-73
2021/04/29 03:36:08;;;;;;;1.93;1.43;;;;;;;12.06;96.33;97432.56;4743841;29;103121;-75
2021/04/29 03:38:35;;;;;;;1.30;1.20;;;;;;;12.10;96.02;97431.25;4740107;29;104940;-74
2021/04/29 03:41:02;;;;;;;2.07;1.50;;;;;;;12.02;94.80;97431.16;4740589;29;103924;-75
2021/04/29 03:43:29;;;;;;;1.80;1.20;;;;;;;12.15;94.79;97434.25;4740258;29;103062;-74
2021/04/29 03:45:56;;;;;;;1.50;1.40;;;;;;;12.09;94.83;97434.91;4740321;29;102740;-73
2021/04/29 03:48:23;;;;;;;1.33;1.20;;;;;;;12.23;94.02;97440.63;4738552;29;103190;-75
2021/04/29 03:50:50;;;;;;;1.27;1.17;;;;;;;12.21;94.29;97449.56;4748757;29;103381;-73
2021/04/29 03:53:18;;;;;;;1.47;1.30;;;;;;;12.02;95.82;97449.69;4758009;29;102987;-74
2021/04/29 03:55:45;;;;;;;1.30;1.20;;;;;;;12.08;95.71;97446.47;4750418;29;103182;-76
2021/04/29 03:58:12;;;;;;;2.80;1.10;;;;;;;12.02;95.97;97460.28;4745467;29;104011;-73
2021/04/29 04:00:39;;;;;;;1.53;1.43;;;;;;;11.92;95.44;97464.81;4738265;29;104265;-73
2021/04/29 04:03:08;;;;;;;1.53;1.43;;;;;;;11.84;92.33;97464.72;4729207;29;102867;-74
2021/04/29 04:05:35;;;;;;;2.30;1.23;;;;;;;11.83;92.98;97471.00;4736534;29;102843;-74
2021/04/29 04:08:02;;;;;;;1.30;1.20;;;;;;;11.77;91.87;97466.28;4757118;29;104047;-73
2021/04/29 04:10:29;;;;;;;1.50;1.30;;;;;;;11.80;91.82;97466.00;4723855;29;103789;-73
2021/04/29 04:12:56;;;;;;;2.80;1.10;;;;;;;11.76;93.20;97469.91;4736597;29;104177;-73
2021/04/29 04:15:23;;;;;;;1.43;1.10;;;;;;;11.89;91.29;97473.06;4728655;29;102996;-74
2021/04/29 04:17:50;;;;;;;1.20;1.10;;;;;;;11.92;91.11;97470.09;4736151;29;104337;-74
2021/04/29 04:20:22;;;;;;;1.03;0.93;;;;;;;11.84;92.96;97466.53;4746983;29;103314;-76
2021/04/29 04:22:49;;;;;;;1.43;1.33;;;;;;;11.76;91.89;97477.84;4746425;29;103137;-75
2021/04/29 04:25:18;;;;;;;2.13;1.50;;;;;;;11.77;92.08;97490.09;4739337;29;103022;-74
2021/04/29 04:27:45;;;;;;;1.17;1.07;;;;;;;11.78;91.29;97483.84;4737205;29;103875;-74
2021/04/29 04:30:12;;;;;;;1.40;1.30;;;;;;;11.56;93.29;97489.50;4737245;29;103721;-74
2021/04/29 04:32:40;;;;;;;1.40;1.27;;;;;;;11.64;92.16;97486.94;4737360;29;103140;-74
2021/04/29 04:35:09;;;;;;;2.20;1.70;;;;;;;11.63;91.57;97494.03;4749233;29;102920;-75
2021/04/29 04:37:36;;;;;;;2.20;1.60;;;;;;;11.37;93.97;97494.81;4752511;29;104727;-73
2021/04/29 04:40:05;;;;;;;2.23;1.20;;;;;;;11.48;92.29;97499.97;4755204;29;103787;-74
2021/04/29 04:42:32;;;;;;;1.53;1.43;;;;;;;11.46;93.40;97494.81;4755887;29;103429;-74
2021/04/29 04:44:59;;;;;;;1.40;1.10;;;;;;;11.57;91.79;97491.13;4741624;29;102854;-74
2021/04/29 04:47:26;;;;;;;2.10;1.57;;;;;;;11.54;91.74;97502.00;4726620;29;110169;-74
2021/04/29 04:49:54;;;;;;;1.70;1.57;;;;;;;11.35;93.42;97496.78;4732379;29;103913;-73
2021/04/29 04:52:21;;;;;;;2.43;1.33;;;;;;;11.36;93.21;97501.09;4729251;29;103001;-74
2021/04/29 04:54:50;;;;;;;2.30;1.73;;;;;;;11.31;93.51;97500.72;4752858;29;103050;-74
2021/04/29 04:57:17;;;;;;;2.33;2.13;;;;;;;11.22;93.64;97502.41;4735105;29;104048;-74
2021/04/29 04:59:44;;;;;;;2.00;1.83;;;;;;;11.43;92.65;97500.38;4742300;29;106427;-75
2021/04/29 05:02:12;;;;;;;1.60;1.50;;;;;;;11.64;91.10;97518.69;4744105;29;103065;-75
2021/04/29 05:04:40;;;;;;;2.13;1.60;;;;;;;11.67;91.38;97525.50;4733734;29;103303;-82
2021/04/29 05:07:07;;;;;;;3.03;2.03;;;;;;;11.85;90.76;97527.25;4737281;29;103965;-76
2021/04/29 05:09:35;;;;;;;5.80;4.70;;;;;;;12.11;91.14;97538.81;4737012;29;103834;-76
2021/04/29 05:12:03;;;;;;;6.30;5.40;;;;;;;12.32;90.44;97535.06;4737131;29;103169;-79
2021/04/29 05:14:30;;;;;;;9.00;7.27;;;;;;;12.36;88.88;97545.19;4740848;29;103008;-75
2021/04/29 05:16:57;;;;;;;8.00;7.17;;;;;;;12.41;90.56;97539.44;4737369;29;103424;-75
2021/04/29 05:19:25;;;;;;;5.77;4.80;;;;;;;12.46;90.63;97531.91;4744569;29;103403;-77
2021/04/29 05:21:52;;;;;;;4.27;3.73;;;;;;;12.69;89.67;97538.41;4745606;29;102888;-77
2021/04/29 05:24:19;;;;;;;4.27;3.23;;;;;;;12.86;88.97;97540.22;4750910;29;103098;-75
2021/04/29 05:26:46;;;;;;;3.13;2.00;;;;;;;12.65;89.53;97545.84;4737582;29;103296;-73
2021/04/29 05:29:14;;;;;;;3.07;1.93;;;;;;;12.58;89.59;97541.28;4754301;29;103837;-74
2021/04/29 05:31:41;;;;;;;1.77;1.67;;;;;;;12.71;88.70;97549.72;4749629;29;103228;-73
2021/04/29 05:34:08;;;;;;;2.17;1.67;;;;;;;12.70;87.52;97546.22;4750048;29;103357;-73
2021/04/29 05:36:35;;;;;;;2.90;1.30;;;;;;;12.52;87.85;97536.59;4741201;29;103976;-77
2021/04/29 05:39:04;;;;;;;2.00;1.50;;;;;;;12.58;86.36;97542.13;4738258;29;104845;-75
2021/04/29 05:41:31;;;;;;;1.30;1.20;;;;;;;12.63;84.90;97533.72;4745697;29;102639;-77
2021/04/29 05:43:58;;;;;;;1.97;1.77;;;;;;;12.72;84.10;97532.81;4750183;29;103159;-77
2021/04/29 05:46:26;;;;;;;2.40;1.53;;;;;;;12.43;86.65;97537.50;4728512;29;107119;-81
2021/04/29 05:48:53;;;;;;;1.53;1.43;;;;;;;12.43;87.39;97537.50;4734302;29;104266;-76
2021/04/29 05:51:20;;;;;;;1.57;1.40;;;;;;;12.35;85.71;97540.06;4746835;29;103020;-77
2021/04/29 05:53:47;;;;;;;2.30;2.10;;;;;;;12.35;85.70;97534.78;4755882;29;103251;-76
2021/04/29 05:56:15;;;;;;;1.70;1.60;;;;;;;12.41;86.74;97534.16;4741867;29;103925;-78
2021/04/29 05:58:43;;;;;;;1.53;1.40;;;;;;;12.55;85.58;97541.56;4724241;29;103771;-78
2021/04/29 06:01:10;;;;;;;2.93;2.10;;;;;;;12.52;84.30;97547.22;4738299;29;102894;-81
2021/04/29 06:03:39;;;;;;;4.47;2.30;;;;;;;12.42;84.96;97551.72;4726756;29;103460;-80
2021/04/29 06:06:07;;;;;;;2.00;1.80;;;;;;;12.68;84.68;97547.34;4738210;29;103572;-80
2021/04/29 06:08:36;;;;;;;3.87;2.30;;;;;;;12.59;84.51;97550.91;4737831;29;103818;-78
2021/04/29 06:11:03;;;;;;;4.30;2.23;;;;;;;12.95;83.87;97552.56;4739019;29;103198;-82
2021/04/29 06:13:30;;;;;;;3.97;2.40;;;;;;;12.95;82.14;97546.41;4740121;29;103202;-82
2021/04/29 06:15:57;;;;;;;3.47;2.40;;;;;;;13.06;83.04;97556.78;4732894;29;103202;-83
2021/04/29 06:18:24;;;;;;;3.70;2.00;;;;;;;13.26;81.28;97553.84;4731029;29;106906;-80
2021/04/29 06:20:53;;;;;;;2.30;1.80;;;;;;;13.54;80.72;97559.81;4741014;29;103310;-81
2021/04/29 06:23:20;;;;;;;4.07;2.83;;;;;;;13.21;80.85;97550.81;4722556;29;103390;-81
2021/04/29 06:25:48;;;;;;;6.60;2.50;;;;;;;13.32;80.62;97550.56;4735081;29;105652;-81
2021/04/29 06:28:16;;;;;;;3.90;2.60;;;;;;;13.46;79.59;97540.38;4737533;29;103774;-81
2021/04/29 06:30:44;;;;;;;6.73;2.70;;;;;;;13.41;80.32;97540.84;4736109;29;103098;-80
2021/04/29 06:33:14;;;;;;;2.80;2.57;;;;;;;13.64;78.93;97541.94;4735615;29;103710;-81
2021/04/29 06:35:42;;;;;;;6.17;2.63;;;;;;;13.95;78.59;97548.41;4721836;29;107198;-80
2021/04/29 06:38:14;;;;;;;2.67;2.47;;;;;;;14.12;78.41;97546.66;4738254;29;104560;-79
2021/04/29 06:40:42;;;;;;;4.50;3.13;;;;;;;14.23;78.20;97554.34;4743658;29;103218;-76
2021/04/29 06:43:12;;;;;;;3.37;2.90;;;;;;;14.04;76.57;97543.97;4738479;29;103705;-81
2021/04/29 06:45:42;;;;;;;5.47;3.00;;;;;;;13.94;74.13;97552.09;4738420;29;103750;-81
2021/04/29 06:48:12;;;;;;;4.17;3.27;;;;;;;14.00;75.75;97545.31;4728404;29;103784;-82
2021/04/29 06:50:45;;;;;;;3.57;3.10;;;;;;;14.05;75.13;97539.50;4737243;29;103239;-82
2021/04/29 06:53:14;;;;;;;6.50;3.63;;;;;;;14.13;73.19;97543.03;4739597;29;104294;-79
2021/04/29 06:55:42;;;;;;;4.43;3.63;;;;;;;14.37;74.14;97540.47;4737956;29;103531;-79
2021/04/29 06:58:10;;;;;;;4.93;3.83;;;;;;;14.32;72.00;97529.50;4708614;29;106431;-81
2021/04/29 07:00:41;;;;;;;5.10;3.87;;;;;;;14.70;71.43;97540.53;4736775;29;103385;-81
2021/04/29 07:03:11;;;;;;;6.13;3.60;;;;;;;14.77;71.20;97542.38;4737647;29;103183;-82
2021/04/29 07:05:39;;;;;;;4.43;4.03;;;;;;;14.43;71.83;97545.13;4721268;29;104412;-82
2021/04/29 07:08:12;;;;;;;8.17;4.00;;;;;;;14.21;72.10;97545.69;4723081;29;105445;-81
2021/04/29 07:10:47;;;;;;;5.13;4.20;;;;;;;14.47;71.85;97559.78;4723224;29;103102;-81
2021/04/29 07:13:16;;;;;;;5.90;4.43;;;;;;;14.51;71.98;97558.44;4739010;29;102964;-76
2021/04/29 07:15:44;;;;;;;7.47;4.40;;;;;;;14.81;71.56;97556.16;4739095;29;103329;-77
2021/04/29 07:18:14;;;;;;;5.47;4.23;;;;;;;14.82;70.74;97565.81;4738479;29;103699;-78
2021/04/29 07:20:43;;;;;;;4.73;4.20;;;;;;;14.89;69.69;97572.13;4729776;29;103222;-76
2021/04/29 07:23:14;;;;;;;6.97;4.40;;;;;;;14.99;70.91;97564.81;4748751;29;103754;-77
2021/04/29 07:25:41;;;;;;;5.90;3.93;;;;;;;15.07;70.85;97562.19;4737369;29;104948;-80
2021/04/29 07:28:10;;;;;;;4.30;3.90;;;;;;;14.63;70.56;97572.25;4720090;29;106371;-77
2021/04/29 07:30:39;;;;;;;6.30;4.23;;;;;;;14.48;71.18;97573.91;4736275;29;103012;-71
2021/04/29 07:33:08;;;;;;;5.73;4.13;;;;;;;14.80;70.31;97578.44;4721469;29;102785;-73
2021/04/29 07:35:36;;;;;;;4.60;4.03;;;;;;;14.71;69.80;97572.25;4739312;29;104928;-75
2021/04/29 07:38:04;;;;;;;4.20;3.80;;;;;;;14.70;69.75;97570.63;4732912;29;105597;-76
2021/04/29 07:40:35;;;;;;;4.37;3.97;;;;;;;14.83;69.51;97573.63;4734847;29;103522;-74
2021/04/29 07:43:03;;;;;;;7.03;4.60;;;;;;;14.59;68.74;97580.72;4734719;29;104298;-76
2021/04/29 07:45:32;;;;;;;4.87;4.10;;;;;;;14.95;68.92;97572.31;4734688;29;105712;-74
2021/04/29 07:48:00;;;;;;;5.10;4.60;;;;;;;15.29;67.53;97572.16;4736907;29;103788;-78
2021/04/29 07:50:31;;;;;;;7.10;3.90;;;;;;;15.81;66.26;97566.44;4738996;29;103013;-74
2021/04/29 07:52:58;;;;;;;5.33;4.10;;;;;;;16.41;65.10;97567.53;4737735;29;103192;-76
2021/04/29 07:55:26;;;;;;;5.23;3.93;;;;;;;16.23;64.41;97580.28;4720407;29;105282;-74
2021/04/29 07:57:54;;;;;;;5.17;4.67;;;;;;;16.09;65.04;97578.31;4727977;29;103799;-77
2021/04/29 08:00:22;;;;;;;7.57;5.23;;;;;;;15.57;64.27;97578.81;4738190;29;103105;-75
2021/04/29 08:02:51;;;;;;;4.37;3.93;;;;;;;16.00;64.72;97579.38;4740383;29;103263;-75
2021/04/29 08:05:19;;;;;;;6.03;4.80;;;;;;;15.93;63.60;97578.38;4731351;29;104728;-77
2021/04/29 08:07:49;;;;;;;6.30;4.33;;;;;;;15.71;65.28;97574.63;4747775;29;104373;-77
2021/04/29 08:10:16;;;;;;;7.13;4.40;;;;;;;15.42;65.69;97585.78;4735415;29;103250;-79
2021/04/29 08:12:44;;;;;;;6.17;4.23;;;;;;;16.13;65.46;97587.66;4719704;29;103385;-78
2021/04/29 08:15:13;;;;;;;4.80;4.23;;;;;;;16.89;62.86;97582.47;4715746;29;106063;-74
2021/04/29 08:17:40;;;;;;;4.57;4.17;;;;;;;17.46;60.97;97585.50;4716000;29;104825;-73
2021/04/29 08:20:11;;;;;;;4.40;3.70;;;;;;;17.32;61.77;97596.97;4718281;29;102990;-75
2021/04/29 08:22:38;;;;;;;4.57;4.17;;;;;;;17.15;59.91;97592.78;4717135;29;102958;-72
2021/04/29 08:25:07;;;;;;;5.73;5.10;;;;;;;16.94;60.17;97584.59;4708372;29;104239;-76
2021/04/29 08:27:35;;;;;;;7.80;4.97;;;;;;;16.91;61.73;97592.94;4719243;29;104918;-72
2021/04/29 08:30:05;;;;;;;5.30;4.80;;;;;;;17.27;60.50;97597.50;4719914;29;103008;-75
2021/04/29 08:32:33;;;;;;;9.07;5.32;;;;;;;17.31;59.19;97596.16;4719250;29;102895;-79
2021/04/29 08:35:01;;;;;;;7.07;4.77;;;;;;;17.98;57.93;97595.38;4713308;29;105732;-73
2021/04/29 08:37:29;;;;;;;5.38;4.88;;;;;;;18.09;57.57;97590.41;4710981;29;105195;-76
2021/04/29 08:39:57;;;;;;;6.85;5.40;;;;;;;17.92;57.25;97588.94;4719005;29;102993;-75
2021/04/29 08:42:28;;;;;;;5.35;4.85;;;;;;;18.86;56.55;97586.25;4723231;29;104761;-76
2021/04/29 08:44:55;;;;;;;6.07;5.50;;;;;;;18.94;55.83;97594.19;4723990;29;103877;-75
2021/04/29 08:47:24;;;;;;;6.60;6.05;;;;;;;18.77;54.14;97590.09;4705106;29;106489;-76
2021/04/29 08:50:12;;;;;;;7.32;5.60;;;;;;;19.90;53.59;97590.13;4720393;29;103376;-76
2021/04/29 08:52:41;;;;;;;7.15;5.57;;;;;;;18.66;53.52;97595.94;4730581;29;103317;-72
2021/04/29 08:55:10;;;;;;;7.78;5.75;;;;;;;18.36;55.08;97588.91;4732489;29;103967;-78
2021/04/29 08:57:37;;;;;;;8.93;6.18;;;;;;;17.46;55.40;97588.16;4708347;29;110636;-79
2021/04/29 09:00:05;;;;;;;6.45;5.60;;;;;;;17.37;56.88;97586.59;4721355;29;103684;-74
2021/04/29 09:02:34;;;;;;;6.32;5.70;;;;;;;17.49;57.56;97587.00;4719599;29;102724;-73
2021/04/29 09:05:13;;;;;;;7.93;5.88;;;;;;;17.30;57.32;97585.66;4721096;29;105862;-75
2021/04/29 09:07:56;;;;;;;7.88;5.38;;;;;;;17.81;57.17;97592.88;4722453;29;106122;-71
2021/04/29 09:10:25;;;;;;;5.07;4.68;;;;;;;17.71;57.23;97599.50;4724323;29;104589;-81
2021/04/29 09:12:54;;;;;;;7.78;5.97;;;;;;;16.93;57.27;97596.25;4722679;29;103180;-75
2021/04/29 09:15:27;;;;;;;5.70;3.75;;;;;;;16.94;59.28;97593.44;4728631;29;105857;-73
2021/04/29 09:18:05;;;;;;;5.85;4.57;;;;;;;17.15;58.62;97590.13;4719417;29;106111;-76
2021/04/29 09:20:34;;;;;;;7.70;5.57;;;;;;;16.94;58.93;97589.94;4713572;29;103428;-75
2021/04/29 09:23:06;;;;;;;6.55;5.80;;;;;;;16.92;59.92;97583.94;4725772;29;103683;-77
2021/04/29 09:25:35;;;;;;;6.05;5.55;;;;;;;16.70;60.39;97599.72;4709957;29;105760;-78
2021/04/29 09:28:04;;;;;;;7.20;4.97;;;;;;;16.36;62.86;97615.22;4720029;29;103724;-75
2021/04/29 09:30:31;;;;;;;10.52;6.90;;;;;;;15.72;67.71;97636.69;4719705;29;103488;-72
2021/04/29 09:33:00;;;;;;;13.50;6.97;;;;;;;15.63;72.40;97651.84;4721116;29;103084;-75
2021/04/29 09:35:28;;;;;;;11.00;7.30;;;;;;;14.74;76.05;97659.66;4728553;29;104081;-72
2021/04/29 09:37:59;;;;;;;8.82;5.90;;;;;;;14.48;77.04;97654.41;4714668;29;106180;-72
2021/04/29 09:40:31;;;;;;;5.47;5.03;;;;;;;14.63;76.48;97653.81;4719912;29;103239;-71
2021/04/29 09:43:01;;;;;;;5.65;4.47;;;;;;;14.97;76.07;97649.25;4710872;29;103221;-76
2021/04/29 09:45:34;;;;;;;7.20;6.60;;;;;;;14.73;75.99;97651.88;4719173;29;103532;-72
2021/04/29 09:48:07;;;;;;;6.40;5.60;;;;;;;14.85;78.47;97653.25;4705793;29;105387;-74
2021/04/29 09:50:39;;;;;;;9.00;8.10;;;;;;;14.24;80.74;97645.47;4713078;29;103025;-73
2021/04/29 09:53:10;;;;;;;7.97;7.17;;;;;;;14.60;79.87;97654.97;4729884;29;103230;-77
2021/04/29 09:55:44;;;;;;;7.68;5.95;;;;;;;14.51;79.33;97642.66;4716256;29;106728;-76
2021/04/29 09:58:16;;;;;;;4.95;4.53;;;;;;;14.57;78.79;97631.38;4722413;29;104203;-76
2021/04/29 10:00:47;;;;;;;8.00;6.97;;;;;;;14.87;78.01;97638.78;4704927;29;103298;-77
2021/04/29 10:03:16;;;;;;;7.50;6.10;;;;;;;15.27;77.74;97635.31;4721745;29;103078;-74
2021/04/29 10:05:50;;;;;;;6.97;6.37;;;;;;;14.35;79.29;97635.44;4721301;29;104308;-77
2021/04/29 10:08:23;;;;;;;7.90;6.97;;;;;;;14.69;80.37;97635.41;4721621;29;106085;-76
2021/04/29 10:10:54;;;;;;;7.93;6.93;;;;;;;15.16;79.49;97626.88;4712797;29;103360;-75
2021/04/29 10:13:29;;;;;;;7.73;6.63;;;;;;;15.57;77.69;97620.56;4740525;29;103418;-79
2021/04/29 10:15:57;;;;;;;8.57;6.40;;;;;;;15.51;73.91;97622.06;4738804;29;104476;-80
2021/04/29 10:18:26;;;;;;;6.18;5.32;;;;;;;15.84;76.24;97625.50;4740502;29;104121;-75
2021/04/29 10:20:57;;;;;;;7.40;5.60;;;;;;;16.45;74.24;97629.34;4738813;29;102990;-78
2021/04/29 10:23:27;;;;;;;7.87;6.23;;;;;;;16.43;75.11;97624.16;4733478;29;103879;-75
2021/04/29 10:25:58;;;;;;;7.07;6.38;;;;;;;16.07;73.06;97620.31;4721092;29;103872;-74
2021/04/29 10:28:31;;;;;;;7.17;6.33;;;;;;;15.80;74.14;97620.72;4734322;29;103777;-76
2021/04/29 10:30:58;;;;;;;6.72;6.07;;;;;;;15.94;72.35;97623.50;4736616;29;103398;-78
2021/04/29 10:33:25;;;;;;;6.90;6.20;;;;;;;15.87;70.59;97627.84;4737353;29;103423;-75
2021/04/29 10:35:55;;;;;;;6.45;5.93;;;;;;;16.17;71.20;97626.25;4735346;29;110594;-75
2021/04/29 10:38:26;;;;;;;7.93;6.45;;;;;;;16.53;69.85;97624.81;4737492;29;104912;-78
2021/04/29 10:40:56;;;;;;;6.28;5.60;;;;;;;16.40;71.34;97629.84;4737408;29;103309;-79
2021/04/29 10:43:36;;;;;;;6.15;5.60;;;;;;;16.70;70.11;97626.41;4734687;29;103542;-76
2021/04/29 10:46:05;;;;;;;8.43;7.07;;;;;;;16.95;70.57;97624.44;4732924;29;105285;-80
2021/04/29 10:48:34;;;;;;;5.85;5.35;;;;;;;17.14;67.95;97623.13;4730892;29;103365;-78
2021/04/29 10:51:07;;;;;;;6.90;5.70;;;;;;;17.78;68.36;97621.78;4741876;29;103250;-79
2021/04/29 10:53:36;;;;;;;7.35;5.78;;;;;;;17.78;66.70;97633.31;4738866;29;103348;-77
2021/04/29 10:56:06;;;;;;;6.30;5.68;;;;;;;17.27;65.68;97674.91;4730191;29;104388;-79
2021/04/29 10:58:34;;;;;;;4.45;4.00;;;;;;;16.11;63.35;97672.25;4737171;29;104138;-80
2021/04/29 11:01:05;;;;;;;5.45;4.28;;;;;;;15.34;63.55;97678.06;4736002;29;102779;-78
2021/04/29 11:03:34;;;;;;;7.78;3.90;;;;;;;14.55;64.81;97691.00;4737005;29;104353;-75
2021/04/29 11:06:11;;;;;;;4.65;4.22;;;;;;;13.90;68.07;97691.44;4734338;29;105234;-77
2021/04/29 11:08:41;;;;;;;6.30;4.33;;;;;;;14.54;67.88;97684.03;4746747;29;103674;-75
2021/04/29 11:11:20;;;;;;;5.47;4.40;;;;;;;14.52;66.84;97687.66;4735418;29;102992;-76
2021/04/29 11:14:01;;;;;;;5.50;5.00;;;;;;;14.09;65.56;97693.03;4740202;29;102997;-77
2021/04/29 11:16:29;;;;;;;4.83;4.37;;;;;;;13.98;65.82;97709.22;4744106;29;106469;-74
2021/04/29 11:18:56;;;;;;;7.00;4.70;;;;;;;14.11;65.79;97688.44;4753391;29;104539;-76
2021/04/29 11:21:28;;;;;;;4.57;4.17;;;;;;;15.16;64.00;97686.19;4742615;29;103176;-74
2021/04/29 11:23:57;;;;;;;5.23;4.77;;;;;;;15.22;62.66;97704.16;4739848;29;103582;-74
2021/04/29 11:26:24;;;;;;;4.90;4.40;;;;;;;14.92;64.43;97696.78;4738972;29;103927;-75
2021/04/29 11:28:55;;;;;;;5.73;4.20;;;;;;;14.55;64.71;97688.34;4737656;29;104056;-80
2021/04/29 11:31:23;;;;;;;4.37;3.83;;;;;;;15.00;65.43;97694.16;4745737;29;103199;-77